Time;durP1;ratioP1;P1;durP2;ratioP2;P2;SDS_P1;SDS_P2;PMS_P1;PMS_P2;Temp;Humidity;BMP_temperature;BMP_pressure;BME280_temperature;BME280_humidity;BME280_pressure;Samples;Min_cycle;Max_cycle;Signal;HPM_P1;HPM_P2
2023/12/24 00:00:29;;;;;;;3.05;1.10;;;;;;;1.87;100.00;99942.44;4983380;28;20218;-42
2023/12/24 00:02:54;;;;;;;7.40;1.50;;;;;;;1.78;100.00;99935.53;4983221;28;20221;-41
2023/12/24 00:05:20;;;;;;;4.97;1.33;;;;;;;1.76;100.00;99935.53;4982857;28;20189;-42
2023/12/24 00:07:45;;;;;;;4.65;1.30;;;;;;;1.77;100.00;99933.78;4981207;28;20170;-42
2023/12/24 00:10:10;;;;;;;7.25;1.55;;;;;;;1.65;100.00;99930.44;4984085;28;20273;-41
2023/12/24 00:12:37;;;;;;;7.35;1.58;;;;;;;1.62;100.00;99935.78;4986279;28;20205;-42
2023/12/24 00:15:03;;;;;;;9.23;1.40;;;;;;;1.62;100.00;99927.88;4986492;28;20240;-41
2023/12/24 00:17:31;;;;;;;6.63;1.38;;;;;;;1.71;100.00;99920.69;4983699;28;20181;-41
2023/12/24 00:19:57;;;;;;;5.45;1.40;;;;;;;1.53;100.00;99914.81;4979495;28;20192;-43
2023/12/24 00:22:23;;;;;;;7.07;1.30;;;;;;;1.56;100.00;99908.63;4981434;28;20259;-42
2023/12/24 00:24:49;;;;;;;4.63;1.35;;;;;;;1.53;100.00;99906.00;4978751;28;20186;-42
2023/12/24 00:27:15;;;;;;;7.65;1.42;;;;;;;1.50;100.00;99893.72;4977673;28;20182;-41
2023/12/24 00:29:40;;;;;;;5.03;1.30;;;;;;;1.39;100.00;99893.03;4984266;28;20761;-42
2023/12/24 00:32:06;;;;;;;5.70;1.15;;;;;;;1.38;100.00;99886.91;4985644;28;20197;-41
2023/12/24 00:34:31;;;;;;;4.45;2.17;;;;;;;1.37;100.00;99885.13;4983807;28;20239;-41
2023/12/24 00:36:56;;;;;;;5.38;1.50;;;;;;;1.37;100.00;99879.84;4983732;28;20576;-41
2023/12/24 00:39:22;;;;;;;6.93;1.40;;;;;;;1.41;100.00;99881.56;4987585;28;20281;-41
2023/12/24 00:41:47;;;;;;;5.15;1.83;;;;;;;1.42;100.00;99874.50;4981144;28;20722;-41
2023/12/24 00:44:13;;;;;;;4.30;1.40;;;;;;;1.37;100.00;99879.00;4984626;28;20717;-42
2023/12/24 00:46:39;;;;;;;4.25;1.40;;;;;;;1.46;100.00;99872.69;4983861;28;20544;-42
2023/12/24 00:49:04;;;;;;;2.33;0.90;;;;;;;1.36;100.00;99872.00;4983954;28;20200;-41
2023/12/24 00:51:30;;;;;;;3.30;1.25;;;;;;;1.29;100.00;99865.94;4980909;28;20225;-41
2023/12/24 00:53:55;;;;;;;5.75;1.70;;;;;;;1.25;100.00;99866.88;4980745;28;20211;-42
2023/12/24 00:56:21;;;;;;;4.30;1.33;;;;;;;1.20;100.00;99863.41;4979793;28;20255;-41
2023/12/24 00:58:46;;;;;;;5.20;1.15;;;;;;;1.24;100.00;99857.19;4980232;28;20192;-43
2023/12/24 01:01:11;;;;;;;3.80;1.17;;;;;;;1.21;100.00;99841.44;4984868;28;20234;-42
2023/12/24 01:03:37;;;;;;;4.93;1.00;;;;;;;1.27;100.00;99840.44;4981013;28;20193;-41
2023/12/24 01:06:02;;;;;;;4.10;1.30;;;;;;;1.20;100.00;99853.75;4982522;28;20233;-41
2023/12/24 01:08:28;;;;;;;4.20;1.33;;;;;;;1.18;100.00;99844.09;4980362;28;20243;-41
2023/12/24 01:10:53;;;;;;;8.45;1.23;;;;;;;1.17;100.00;99848.50;4965961;28;20189;-41
2023/12/24 01:13:19;;;;;;;2.45;0.90;;;;;;;1.16;100.00;99843.25;4984218;28;20339;-40
2023/12/24 01:15:48;;;;;;;4.22;1.27;;;;;;;1.20;100.00;99842.31;4986349;28;20675;-43
2023/12/24 01:18:14;;;;;;;5.47;1.10;;;;;;;1.16;100.00;99838.88;4983191;28;20214;-42
2023/12/24 01:20:40;;;;;;;2.75;1.08;;;;;;;1.29;100.00;99850.09;4981264;28;20236;-42
2023/12/24 01:23:06;;;;;;;4.63;1.40;;;;;;;1.13;100.00;99849.44;4980379;28;20197;-41
2023/12/24 01:25:31;;;;;;;4.97;1.42;;;;;;;1.18;100.00;99836.19;4981988;28;20236;-42
2023/12/24 01:27:57;;;;;;;3.03;1.20;;;;;;;1.23;100.00;99834.38;4995212;28;20289;-43
2023/12/24 01:30:22;;;;;;;3.63;1.20;;;;;;;1.16;100.00;99830.06;4981417;28;20381;-42
2023/12/24 01:32:48;;;;;;;1.98;0.98;;;;;;;1.11;100.00;99845.97;4986297;28;20295;-42
2023/12/24 01:35:13;;;;;;;3.08;1.30;;;;;;;1.14;100.00;99831.88;4982502;28;20593;-41
2023/12/24 01:37:39;;;;;;;4.55;1.40;;;;;;;1.10;100.00;99833.69;4980435;28;20185;-41
2023/12/24 01:40:05;;;;;;;3.83;1.20;;;;;;;1.09;100.00;99831.94;4985638;28;20185;-42
2023/12/24 01:42:30;;;;;;;1.77;0.90;;;;;;;1.07;100.00;99832.84;4978996;28;20222;-43
2023/12/24 01:44:56;;;;;;;3.20;0.98;;;;;;;1.05;100.00;99838.19;4982753;28;20544;-42
2023/12/24 01:47:22;;;;;;;1.23;0.80;;;;;;;1.09;100.00;99825.78;4982730;28;20562;-41
2023/12/24 01:49:49;;;;;;;1.85;1.00;;;;;;;1.09;100.00;99821.38;4979607;28;20254;-41
2023/12/24 01:52:16;;;;;;;3.75;0.80;;;;;;;1.11;100.00;99816.94;4978412;28;20205;-42
2023/12/24 01:54:44;;;;;;;2.47;1.10;;;;;;;1.10;100.00;99809.94;4983313;28;20228;-41
2023/12/24 01:57:10;;;;;;;2.58;0.80;;;;;;;1.08;100.00;99806.47;4997548;28;20259;-42
2023/12/24 01:59:36;;;;;;;2.17;1.08;;;;;;;1.02;100.00;99806.56;4981950;28;20174;-41
2023/12/24 02:02:03;;;;;;;5.13;1.00;;;;;;;1.08;100.00;99797.69;4983447;28;20299;-41
2023/12/24 02:04:29;;;;;;;2.60;0.80;;;;;;;1.14;100.00;99784.41;4982769;28;20177;-41
2023/12/24 02:06:55;;;;;;;1.17;0.88;;;;;;;1.11;100.00;99773.88;4980807;28;20185;-43
2023/12/24 02:09:20;;;;;;;3.17;1.30;;;;;;;1.08;100.00;99772.16;4995843;28;20247;-42
2023/12/24 02:11:46;;;;;;;3.33;1.10;;;;;;;1.09;100.00;99770.41;4983366;28;20173;-42
2023/12/24 02:14:11;;;;;;;1.23;0.90;;;;;;;1.10;100.00;99762.47;4980330;28;20177;-42
2023/12/24 02:16:39;;;;;;;1.92;0.90;;;;;;;1.14;100.00;99750.97;4981726;28;20206;-42
2023/12/24 02:19:09;;;;;;;2.25;0.95;;;;;;;1.15;100.00;99754.47;4980625;28;20177;-42
2023/12/24 02:21:34;;;;;;;0.90;0.90;;;;;;;1.14;100.00;99748.34;4980205;28;20186;-41
2023/12/24 02:24:00;;;;;;;1.40;1.20;;;;;;;1.17;100.00;99750.91;4983853;28;20528;-42
2023/12/24 02:26:34;;;;;;;2.85;1.30;;;;;;;1.28;100.00;99752.50;4978947;28;20503;-41
2023/12/24 02:29:10;;;;;;;1.00;1.00;;;;;;;1.19;100.00;99740.34;4975379;28;20194;-42
2023/12/24 02:31:41;;;;;;;2.15;1.20;;;;;;;1.18;100.00;99721.00;4975885;28;20261;-41
2023/12/24 02:34:09;;;;;;;1.42;1.33;;;;;;;1.16;100.00;99716.63;4973620;28;20182;-42
2023/12/24 02:36:36;;;;;;;1.20;1.10;;;;;;;1.19;100.00;99709.53;4975953;28;20269;-42
2023/12/24 02:39:02;;;;;;;1.33;1.23;;;;;;;1.23;100.00;99713.00;4980614;28;20231;-42
2023/12/24 02:41:28;;;;;;;1.70;1.25;;;;;;;1.23;100.00;99703.31;4979989;28;20282;-42
2023/12/24 02:43:53;;;;;;;2.03;1.52;;;;;;;1.29;100.00;99704.09;4985440;28;20250;-43
2023/12/24 02:46:19;;;;;;;1.65;1.55;;;;;;;1.37;100.00;99699.53;4982808;28;20185;-43
2023/12/24 02:48:44;;;;;;;1.42;1.30;;;;;;;1.36;100.00;99718.94;4979610;28;20190;-42
2023/12/24 02:51:09;;;;;;;1.40;1.30;;;;;;;1.40;100.00;99710.94;4988460;28;20198;-42
2023/12/24 02:53:36;;;;;;;1.60;1.50;;;;;;;1.34;100.00;99686.41;4986556;28;20209;-41
2023/12/24 02:56:02;;;;;;;1.60;1.50;;;;;;;1.38;100.00;99677.56;4986707;28;20237;-42
2023/12/24 02:58:28;;;;;;;1.63;1.52;;;;;;;1.41;100.00;99675.69;4989112;28;20192;-43
2023/12/24 03:00:53;;;;;;;1.35;1.25;;;;;;;1.47;100.00;99687.06;4982359;28;20194;-45
2023/12/24 03:03:19;;;;;;;1.92;1.70;;;;;;;1.51;100.00;99681.69;4983418;28;20213;-40
2023/12/24 03:05:44;;;;;;;1.60;1.50;;;;;;;1.62;100.00;99669.13;4980191;28;20233;-41
2023/12/24 03:08:10;;;;;;;1.90;1.70;;;;;;;1.62;100.00;99671.78;4977987;28;20197;-41
2023/12/24 03:10:35;;;;;;;2.25;1.70;;;;;;;1.61;100.00;99670.03;4981833;28;20217;-41
2023/12/24 03:13:01;;;;;;;1.40;1.30;;;;;;;1.64;100.00;99651.50;4985041;28;20209;-40
2023/12/24 03:15:26;;;;;;;2.35;1.85;;;;;;;1.64;100.00;99648.00;4985326;28;20217;-41
2023/12/24 03:17:52;;;;;;;3.55;2.00;;;;;;;1.69;100.00;99643.47;4986308;28;20213;-41
2023/12/24 03:20:17;;;;;;;2.55;1.80;;;;;;;1.71;100.00;99636.41;4980626;28;20190;-41
2023/12/24 03:22:43;;;;;;;2.33;2.13;;;;;;;1.75;100.00;99645.09;4981238;28;20217;-41
2023/12/24 03:25:08;;;;;;;2.22;2.13;;;;;;;1.81;100.00;99634.41;4984703;28;20206;-41
2023/12/24 03:27:33;;;;;;;2.38;2.17;;;;;;;1.82;100.00;99618.53;4978428;28;20511;-41
2023/12/24 03:29:59;;;;;;;2.55;2.20;;;;;;;1.86;100.00;99614.06;4978233;28;20174;-41
2023/12/24 03:32:25;;;;;;;2.90;2.60;;;;;;;1.89;100.00;99611.34;4981173;28;20636;-42
2023/12/24 03:34:50;;;;;;;4.68;2.60;;;;;;;1.93;100.00;99607.75;4987662;28;20193;-42
2023/12/24 03:37:16;;;;;;;2.95;2.75;;;;;;;2.00;100.00;99606.69;4983226;28;20206;-41
2023/12/24 03:39:41;;;;;;;3.20;3.00;;;;;;;2.06;100.00;99614.47;4982295;28;20197;-41
2023/12/24 03:42:07;;;;;;;3.42;3.13;;;;;;;2.10;100.00;99607.34;4987521;28;20218;-42
2023/12/24 03:44:33;;;;;;;3.85;3.47;;;;;;;2.21;100.00;99596.53;4986646;28;20277;-42
2023/12/24 03:46:59;;;;;;;3.42;3.13;;;;;;;2.26;100.00;99607.84;4981022;28;20763;-41
2023/12/24 03:49:24;;;;;;;3.40;3.05;;;;;;;2.31;100.00;99603.31;4990505;28;20193;-42
2023/12/24 03:51:49;;;;;;;5.32;3.38;;;;;;;2.43;100.00;99610.09;4983990;28;20182;-41
2023/12/24 03:54:15;;;;;;;3.60;3.30;;;;;;;2.66;100.00;99613.00;4978874;28;20182;-41
2023/12/24 03:56:41;;;;;;;4.20;3.53;;;;;;;2.71;100.00;99610.25;4986054;28;20704;-41
2023/12/24 03:59:06;;;;;;;3.90;3.58;;;;;;;2.95;100.00;99606.13;4985567;28;20695;-42
2023/12/24 04:01:32;;;;;;;4.57;4.18;;;;;;;3.06;100.00;99609.34;4983931;28;20197;-41
2023/12/24 04:03:57;;;;;;;4.60;4.03;;;;;;;3.10;100.00;99612.75;4980287;28;20188;-43
2023/12/24 04:06:23;;;;;;;5.10;4.60;;;;;;;3.19;100.00;99603.69;4983553;28;20492;-41
2023/12/24 04:08:48;;;;;;;5.18;4.68;;;;;;;3.38;100.00;99590.81;4995005;28;20663;-40
2023/12/24 04:11:15;;;;;;;6.68;5.22;;;;;;;3.58;100.00;99599.03;4978876;28;20260;-43
2023/12/24 04:13:41;;;;;;;5.80;5.20;;;;;;;3.62;100.00;99592.72;4986053;28;20220;-41
2023/12/24 04:16:07;;;;;;;5.93;5.18;;;;;;;3.75;100.00;99589.72;4996767;28;20249;-43
2023/12/24 04:18:33;;;;;;;6.25;5.40;;;;;;;3.94;100.00;99598.84;4980784;28;20752;-44
2023/12/24 04:20:59;;;;;;;7.65;6.22;;;;;;;4.10;100.00;99589.50;4985415;28;20571;-40
2023/12/24 04:23:24;;;;;;;6.85;6.15;;;;;;;4.20;100.00;99590.09;4985852;28;20202;-43
2023/12/24 04:25:50;;;;;;;7.63;5.32;;;;;;;4.25;100.00;99589.94;4979844;28;20181;-43
2023/12/24 04:28:15;;;;;;;5.90;5.03;;;;;;;4.36;100.00;99595.75;4978234;28;20248;-42
2023/12/24 04:30:41;;;;;;;7.75;5.82;;;;;;;4.47;100.00;99592.75;4988807;28;20181;-42
2023/12/24 04:33:07;;;;;;;5.88;5.25;;;;;;;4.60;100.00;99582.59;4981312;28;20229;-43
2023/12/24 04:35:32;;;;;;;6.32;5.43;;;;;;;4.63;100.00;99577.16;4983716;28;20202;-42
2023/12/24 04:37:59;;;;;;;5.85;4.90;;;;;;;4.68;100.00;99576.09;4981791;28;20284;-44
2023/12/24 04:40:24;;;;;;;4.75;4.30;;;;;;;4.68;100.00;99575.22;4983489;28;20177;-42
2023/12/24 04:42:50;;;;;;;5.20;4.38;;;;;;;4.98;100.00;99580.38;4981599;28;20823;-41
2023/12/24 04:45:15;;;;;;;4.80;3.60;;;;;;;5.05;100.00;99573.94;4987621;28;20182;-43
2023/12/24 04:47:41;;;;;;;3.53;2.70;;;;;;;5.17;100.00;99581.47;4986962;28;20185;-41
2023/12/24 04:50:07;;;;;;;2.78;2.00;;;;;;;5.44;100.00;99579.56;4985965;28;20224;-41
2023/12/24 04:52:35;;;;;;;2.72;1.77;;;;;;;5.55;100.00;99579.16;4977279;28;20197;-43
2023/12/24 04:55:05;;;;;;;1.58;1.20;;;;;;;5.86;100.00;99573.56;4985132;28;20197;-43
2023/12/24 04:57:31;;;;;;;1.95;0.75;;;;;;;5.82;100.00;99560.47;4976919;28;20183;-42
2023/12/24 04:59:56;;;;;;;1.90;0.50;;;;;;;5.99;100.00;99565.97;4985388;28;20239;-43
2023/12/24 05:02:22;;;;;;;1.63;0.70;;;;;;;6.06;100.00;99571.94;4986402;28;20208;-43
2023/12/24 05:04:49;;;;;;;0.82;0.60;;;;;;;6.11;100.00;99564.66;4981842;28;20229;-43
2023/12/24 05:07:16;;;;;;;1.65;0.70;;;;;;;6.21;100.00;99567.78;4982687;28;20562;-43
2023/12/24 05:09:42;;;;;;;0.70;0.60;;;;;;;6.24;100.00;99559.69;4984124;28;20208;-42
2023/12/24 05:12:08;;;;;;;1.27;0.50;;;;;;;6.26;100.00;99558.69;4986858;28;20312;-42
2023/12/24 05:14:34;;;;;;;2.38;0.70;;;;;;;6.34;100.00;99563.69;4980975;28;20186;-43
2023/12/24 05:17:02;;;;;;;0.63;0.52;;;;;;;6.30;100.00;99565.63;4984400;28;20295;-42
2023/12/24 05:19:28;;;;;;;1.35;0.80;;;;;;;6.39;100.00;99572.38;4984616;28;20217;-42
2023/12/24 05:21:53;;;;;;;2.55;0.70;;;;;;;6.38;100.00;99558.22;4980952;28;20675;-43
2023/12/24 05:24:19;;;;;;;0.80;0.80;;;;;;;6.40;100.00;99558.13;4979679;28;20196;-44
2023/12/24 05:26:44;;;;;;;1.00;0.70;;;;;;;6.37;100.00;99563.59;4986089;28;20206;-42
2023/12/24 05:29:10;;;;;;;2.55;1.00;;;;;;;6.48;100.00;99553.34;4977401;28;20193;-41
2023/12/24 05:31:40;;;;;;;2.35;1.05;;;;;;;6.46;100.00;99541.06;4983764;28;20236;-43
2023/12/24 05:34:06;;;;;;;2.85;1.23;;;;;;;6.60;100.00;99555.50;4977820;28;20178;-42
2023/12/24 05:36:35;;;;;;;1.48;1.00;;;;;;;6.51;100.00;99560.34;4979995;28;20224;-43
2023/12/24 05:39:00;;;;;;;2.88;1.40;;;;;;;6.59;100.00;99553.75;4978791;28;20212;-41
2023/12/24 05:41:27;;;;;;;3.22;1.50;;;;;;;6.53;100.00;99555.81;4982240;28;20212;-43
2023/12/24 05:43:52;;;;;;;3.30;1.58;;;;;;;6.50;100.00;99546.19;4980170;28;20205;-44
2023/12/24 05:46:18;;;;;;;2.42;1.50;;;;;;;6.59;100.00;99555.56;4982321;28;20198;-42
2023/12/24 05:48:43;;;;;;;3.00;1.48;;;;;;;6.58;100.00;99549.38;4981317;28;20198;-43
2023/12/24 05:51:09;;;;;;;4.45;1.55;;;;;;;6.59;100.00;99558.22;4983261;28;20539;-44
2023/12/24 05:53:35;;;;;;;2.85;1.48;;;;;;;6.51;100.00;99557.69;4984007;28;20285;-42
2023/12/24 05:56:00;;;;;;;4.28;1.88;;;;;;;6.56;100.00;99555.72;4982965;28;20303;-42
2023/12/24 05:58:26;;;;;;;5.95;1.75;;;;;;;6.59;100.00;99553.75;4985263;28;20174;-43
2023/12/24 06:00:52;;;;;;;3.33;1.42;;;;;;;6.57;100.00;99554.75;4966056;28;20190;-43
2023/12/24 06:03:17;;;;;;;3.25;1.40;;;;;;;6.56;100.00;99553.03;4980200;28;20221;-42
2023/12/24 06:05:43;;;;;;;3.70;1.10;;;;;;;6.56;100.00;99551.25;4977548;28;20591;-43
2023/12/24 06:08:09;;;;;;;3.47;1.60;;;;;;;6.55;100.00;99551.31;4980605;28;20238;-43
2023/12/24 06:10:34;;;;;;;2.67;1.35;;;;;;;6.55;100.00;99546.84;4983669;28;20197;-42
2023/12/24 06:13:00;;;;;;;4.70;1.60;;;;;;;6.47;100.00;99534.78;4982572;28;20221;-44
2023/12/24 06:15:26;;;;;;;1.88;1.65;;;;;;;6.55;100.00;99544.19;4983260;28;20216;-43
2023/12/24 06:17:51;;;;;;;2.95;1.85;;;;;;;6.58;100.00;99543.19;4980709;28;20668;-42
2023/12/24 06:20:17;;;;;;;2.75;2.10;;;;;;;6.57;100.00;99547.63;4982317;28;20484;-44
2023/12/24 06:22:42;;;;;;;3.60;2.50;;;;;;;6.51;100.00;99539.91;4980729;28;20293;-43
2023/12/24 06:25:08;;;;;;;3.83;2.38;;;;;;;6.52;100.00;99539.00;4984886;28;20197;-43
2023/12/24 06:27:34;;;;;;;2.50;2.30;;;;;;;6.56;100.00;99555.72;4984462;28;20197;-43
2023/12/24 06:30:00;;;;;;;2.45;1.90;;;;;;;6.56;100.00;99551.25;4987754;28;20259;-44
2023/12/24 06:32:25;;;;;;;2.90;2.17;;;;;;;6.59;100.00;99531.63;4983589;28;20197;-42
2023/12/24 06:34:51;;;;;;;2.13;1.90;;;;;;;6.62;100.00;99533.28;4983477;28;20193;-44
2023/12/24 06:37:16;;;;;;;2.05;1.88;;;;;;;6.62;100.00;99546.59;4981548;28;20214;-42
2023/12/24 06:39:42;;;;;;;1.60;1.50;;;;;;;6.64;100.00;99536.75;4986352;28;20181;-42
2023/12/24 06:42:07;;;;;;;3.28;1.90;;;;;;;6.64;100.00;99537.59;4987505;28;20205;-42
2023/12/24 06:44:33;;;;;;;1.75;1.63;;;;;;;6.65;100.00;99533.13;4986940;28;20181;-44
2023/12/24 06:46:58;;;;;;;2.28;1.60;;;;;;;6.70;100.00;99541.81;4982879;28;20632;-44
2023/12/24 06:49:24;;;;;;;1.63;1.52;;;;;;;6.69;100.00;99545.38;4983415;28;20196;-43
2023/12/24 06:51:49;;;;;;;1.45;1.40;;;;;;;6.76;100.00;99531.75;4986188;28;20193;-43
2023/12/24 06:54:15;;;;;;;2.33;1.50;;;;;;;6.76;100.00;99544.22;4982583;28;20276;-44
2023/12/24 06:56:40;;;;;;;1.40;1.30;;;;;;;6.78;100.00;99535.22;4986214;28;20232;-42
2023/12/24 06:59:06;;;;;;;1.17;1.17;;;;;;;6.86;100.00;99542.84;4981933;28;20182;-44
2023/12/24 07:01:31;;;;;;;1.17;1.13;;;;;;;6.84;100.00;99535.88;4985392;28;20699;-43
2023/12/24 07:03:57;;;;;;;1.48;1.20;;;;;;;6.83;100.00;99537.69;4982872;28;20920;-45
2023/12/24 07:06:22;;;;;;;1.25;1.20;;;;;;;6.89;100.00;99534.75;4985292;28;20182;-44
2023/12/24 07:08:48;;;;;;;1.50;1.40;;;;;;;6.90;100.00;99517.81;4985320;28;20211;-43
2023/12/24 07:11:13;;;;;;;1.40;1.30;;;;;;;6.86;100.00;99537.53;4984175;28;20182;-41
2023/12/24 07:13:40;;;;;;;1.58;1.40;;;;;;;6.89;100.00;99525.91;4983317;28;20209;-42
2023/12/24 07:16:06;;;;;;;1.40;1.35;;;;;;;6.91;100.00;99518.69;4982555;28;20199;-41
2023/12/24 07:18:31;;;;;;;1.25;1.20;;;;;;;6.91;100.00;99524.91;4985202;28;20192;-41
2023/12/24 07:20:57;;;;;;;1.33;1.23;;;;;;;6.97;100.00;99529.94;4984734;28;20190;-43
2023/12/24 07:23:22;;;;;;;2.10;1.40;;;;;;;6.94;100.00;99519.44;4985221;28;20201;-43
2023/12/24 07:25:47;;;;;;;1.85;1.45;;;;;;;6.96;100.00;99517.56;4986432;28;20276;-42
2023/12/24 07:28:13;;;;;;;1.40;1.30;;;;;;;6.95;100.00;99510.53;4984992;28;20212;-42
2023/12/24 07:30:38;;;;;;;1.40;1.30;;;;;;;7.01;100.00;99523.53;4985267;28;20236;-41
2023/12/24 07:33:05;;;;;;;2.67;1.30;;;;;;;6.99;100.00;99517.41;4982500;28;20663;-41
2023/12/24 07:35:30;;;;;;;1.40;1.30;;;;;;;7.13;100.00;99518.63;4983602;28;20206;-43
2023/12/24 07:37:56;;;;;;;1.48;1.40;;;;;;;7.03;100.00;99525.28;4985076;28;20270;-43
2023/12/24 07:40:21;;;;;;;1.40;1.33;;;;;;;7.06;100.00;99517.16;4986418;28;20169;-41
2023/12/24 07:42:47;;;;;;;2.08;1.60;;;;;;;7.05;100.00;99512.78;4983482;28;20280;-42
2023/12/24 07:45:12;;;;;;;1.77;1.42;;;;;;;7.13;100.00;99510.63;4986678;28;20189;-42
2023/12/24 07:47:38;;;;;;;1.70;1.60;;;;;;;7.12;100.00;99503.56;4985460;28;20182;-41
2023/12/24 07:50:05;;;;;;;1.67;1.58;;;;;;;7.13;100.00;99522.16;4992688;28;20196;-41
2023/12/24 07:52:30;;;;;;;1.67;1.58;;;;;;;7.13;100.00;99515.97;4983227;28;20271;-41
2023/12/24 07:54:56;;;;;;;1.75;1.65;;;;;;;7.12;100.00;99517.72;4983494;28;20186;-41
2023/12/24 07:57:21;;;;;;;2.33;1.73;;;;;;;7.14;100.00;99499.03;4982615;28;20583;-43
2023/12/24 07:59:46;;;;;;;1.40;1.30;;;;;;;7.15;100.00;99487.44;4982460;28;20656;-42
2023/12/24 08:02:12;;;;;;;1.58;1.48;;;;;;;7.20;100.00;99478.31;4980096;28;20267;-42
2023/12/24 08:04:38;;;;;;;1.40;1.30;;;;;;;7.15;100.00;99495.41;4981106;28;20231;-41
2023/12/24 08:07:03;;;;;;;1.70;1.60;;;;;;;7.22;100.00;99484.44;4986258;28;20664;-42
2023/12/24 08:09:29;;;;;;;1.70;1.58;;;;;;;7.21;100.00;99488.03;4980904;28;20194;-41
2023/12/24 08:11:54;;;;;;;1.70;1.60;;;;;;;7.25;100.00;99496.72;4984120;28;20719;-41
2023/12/24 08:14:20;;;;;;;2.83;1.40;;;;;;;7.26;100.00;99482.50;4984337;28;20639;-40
2023/12/24 08:16:45;;;;;;;2.13;1.20;;;;;;;7.26;100.00;99490.50;4981741;28;20248;-42
2023/12/24 08:19:10;;;;;;;1.77;1.42;;;;;;;7.26;100.00;99481.59;4984884;28;20181;-42
2023/12/24 08:21:36;;;;;;;1.33;1.20;;;;;;;7.30;100.00;99484.06;4986095;28;20248;-42
2023/12/24 08:24:02;;;;;;;1.40;1.40;;;;;;;7.30;100.00;99496.53;4982484;28;20190;-42
2023/12/24 08:26:27;;;;;;;1.98;1.33;;;;;;;7.34;100.00;99480.31;4982942;28;20734;-44
2023/12/24 08:28:53;;;;;;;1.58;1.50;;;;;;;7.33;100.00;99483.94;4983184;28;20677;-42
2023/12/24 08:31:18;;;;;;;1.70;1.60;;;;;;;7.36;100.00;99477.59;4986018;28;20264;-43
2023/12/24 08:33:44;;;;;;;1.50;1.40;;;;;;;7.38;100.00;99481.91;4981143;28;20379;-42
2023/12/24 08:36:10;;;;;;;1.63;1.63;;;;;;;7.35;100.00;99479.41;4983574;28;20391;-44
2023/12/24 08:38:36;;;;;;;1.63;1.52;;;;;;;7.41;100.00;99481.78;4985914;28;20648;-42
2023/12/24 08:41:02;;;;;;;2.58;1.63;;;;;;;7.39;100.00;99480.09;4983329;28;20296;-43
2023/12/24 08:43:27;;;;;;;1.58;1.48;;;;;;;7.45;100.00;99485.16;4983326;28;20207;-44
2023/12/24 08:45:53;;;;;;;1.70;1.60;;;;;;;7.43;100.00;99485.25;4982816;28;20189;-43
2023/12/24 08:48:18;;;;;;;1.55;1.40;;;;;;;7.44;100.00;99483.44;4982405;28;20208;-43
2023/12/24 08:50:44;;;;;;;1.98;1.73;;;;;;;7.43;100.00;99485.25;4983851;28;20216;-42
2023/12/24 08:53:11;;;;;;;1.90;1.70;;;;;;;7.41;100.00;99483.56;4984078;28;20217;-42
2023/12/24 08:55:36;;;;;;;1.88;1.77;;;;;;;7.48;100.00;99476.13;4983802;28;20297;-44
2023/12/24 08:58:02;;;;;;;2.15;1.50;;;;;;;7.48;100.00;99470.81;4983771;28;20198;-43
2023/12/24 09:00:28;;;;;;;2.15;1.60;;;;;;;7.53;100.00;99488.31;4983190;28;20558;-44
2023/12/24 09:02:54;;;;;;;1.80;1.70;;;;;;;7.55;100.00;99489.13;4978207;28;20202;-42
2023/12/24 09:05:20;;;;;;;1.70;1.60;;;;;;;7.55;100.00;99488.25;4983161;28;20310;-40
2023/12/24 09:07:46;;;;;;;2.50;1.60;;;;;;;7.57;100.00;99471.25;4986089;28;20680;-43
2023/12/24 09:10:11;;;;;;;2.78;1.63;;;;;;;7.58;100.00;99466.78;4983989;28;20193;-44
2023/12/24 09:12:37;;;;;;;1.70;1.60;;;;;;;7.64;100.00;99488.66;4982882;28;20669;-42
2023/12/24 09:15:03;;;;;;;2.35;2.00;;;;;;;7.61;100.00;99483.50;4981502;28;20260;-42
2023/12/24 09:17:29;;;;;;;2.85;1.88;;;;;;;7.64;100.00;99478.00;4985517;28;20618;-42
2023/12/24 09:19:54;;;;;;;2.35;2.08;;;;;;;7.67;100.00;99471.66;4983425;28;20264;-42
2023/12/24 09:22:20;;;;;;;3.13;1.90;;;;;;;7.66;100.00;99464.63;4984294;28;20200;-40
2023/12/24 09:24:45;;;;;;;2.42;2.20;;;;;;;7.69;100.00;99480.44;4982000;28;20231;-42
2023/12/24 09:27:11;;;;;;;2.83;2.10;;;;;;;7.72;100.00;99467.00;4982556;28;20184;-43
2023/12/24 09:29:36;;;;;;;3.17;1.92;;;;;;;7.70;100.00;99457.34;4981925;28;20594;-43
2023/12/24 09:32:02;;;;;;;1.73;1.63;;;;;;;7.72;100.00;99464.31;4983334;28;20206;-42
2023/12/24 09:34:27;;;;;;;3.00;1.92;;;;;;;7.71;100.00;99446.59;4979968;28;20206;-42
2023/12/24 09:36:52;;;;;;;4.57;2.10;;;;;;;7.71;100.00;99457.25;4984643;28;20300;-41
2023/12/24 09:39:18;;;;;;;1.98;1.60;;;;;;;7.82;100.00;99452.25;4983876;28;20229;-41
2023/12/24 09:41:43;;;;;;;3.42;2.00;;;;;;;7.90;100.00;99443.03;4980467;28;20221;-42
2023/12/24 09:44:09;;;;;;;2.28;1.65;;;;;;;7.81;100.00;99455.88;4983075;28;20197;-41
2023/12/24 09:46:35;;;;;;;2.13;1.77;;;;;;;7.88;100.00;99453.75;4984311;28;20273;-41
2023/12/24 09:49:00;;;;;;;2.08;1.50;;;;;;;7.90;100.00;99443.88;4983372;28;20209;-42
2023/12/24 09:51:26;;;;;;;3.08;1.73;;;;;;;7.87;100.00;99435.16;4983654;28;20296;-43
2023/12/24 09:53:54;;;;;;;3.63;1.90;;;;;;;7.96;100.00;99426.69;4977982;28;20220;-41
2023/12/24 09:56:20;;;;;;;3.72;2.15;;;;;;;7.91;100.00;99434.06;4983640;28;20213;-40
2023/12/24 09:58:46;;;;;;;5.00;2.53;;;;;;;7.87;100.00;99441.38;4978438;28;20253;-43
2023/12/24 10:01:12;;;;;;;7.20;6.50;;;;;;;7.98;100.00;99438.16;4980755;28;20221;-42
2023/12/24 10:03:37;;;;;;;5.32;3.00;;;;;;;7.94;100.00;99445.47;4983387;28;20248;-43
2023/12/24 10:06:04;;;;;;;8.45;4.97;;;;;;;7.98;100.00;99446.16;4983902;28;20625;-42
2023/12/24 10:08:36;;;;;;;7.63;4.10;;;;;;;7.95;100.00;99439.19;4984388;28;20268;-43
2023/12/24 10:11:23;;;;;;;5.03;3.50;;;;;;;8.01;100.00;99448.69;4981087;28;20549;-42
2023/12/24 10:14:01;;;;;;;8.35;3.40;;;;;;;7.94;100.00;99436.63;4982530;28;20212;-42
2023/12/24 10:16:27;;;;;;;14.60;10.13;;;;;;;7.95;100.00;99427.66;4975952;28;20291;-42
2023/12/24 10:18:55;;;;;;;13.23;8.57;;;;;;;7.96;100.00;99446.25;4982019;28;20196;-43
2023/12/24 10:21:21;;;;;;;32.70;27.73;;;;;;;7.96;100.00;99434.69;4982275;28;20192;-42
2023/12/24 10:23:47;;;;;;;8.25;4.82;;;;;;;7.94;100.00;99431.28;4980562;28;20255;-43
2023/12/24 10:26:12;;;;;;;15.85;9.90;;;;;;;8.00;100.00;99438.94;4981406;28;20189;-42
2023/12/24 10:28:50;;;;;;;21.08;9.50;;;;;;;8.08;100.00;99439.44;4981587;28;20296;-41
2023/12/24 10:31:16;;;;;;;27.45;8.95;;;;;;;8.03;100.00;99421.00;4984922;28;20228;-43
2023/12/24 10:33:41;;;;;;;21.77;9.90;;;;;;;8.06;100.00;99414.63;4979428;28;20714;-41
2023/12/24 10:36:07;;;;;;;30.50;10.20;;;;;;;8.01;100.00;99416.69;4983950;28;20209;-42
2023/12/24 10:38:34;;;;;;;29.15;12.82;;;;;;;8.12;100.00;99408.13;4979470;28;20251;-41
2023/12/24 10:41:01;;;;;;;38.88;12.43;;;;;;;8.13;100.00;99407.19;4982421;28;20189;-43
2023/12/24 10:43:26;;;;;;;43.15;13.05;;;;;;;8.13;100.00;99409.84;4976070;28;20206;-44
2023/12/24 10:45:52;;;;;;;36.28;12.23;;;;;;;8.13;100.00;99417.84;4982983;28;20192;-42
2023/12/24 10:48:17;;;;;;;36.63;12.50;;;;;;;8.13;100.00;99401.84;4983075;28;20692;-41
2023/12/24 10:50:43;;;;;;;38.20;12.07;;;;;;;8.15;100.00;99405.31;4982812;28;20181;-43
2023/12/24 10:53:10;;;;;;;45.08;13.40;;;;;;;8.10;100.00;99410.88;4980668;28;20588;-42
2023/12/24 10:55:36;;;;;;;44.45;13.57;;;;;;;8.18;100.00;99403.34;4982067;28;20227;-42
2023/12/24 10:58:19;;;;;;;48.75;13.75;;;;;;;8.17;100.00;99395.41;4980861;28;20665;-42
2023/12/24 11:00:45;;;;;;;45.60;13.48;;;;;;;8.22;100.00;99406.72;4979488;28;20204;-43
2023/12/24 11:03:10;;;;;;;37.50;13.77;;;;;;;8.19;100.00;99410.41;4978968;28;20206;-41
2023/12/24 11:05:43;;;;;;;58.78;15.23;;;;;;;8.23;100.00;99411.13;4978857;28;20178;-42
2023/12/24 11:08:21;;;;;;;42.47;13.18;;;;;;;8.28;100.00;99406.41;4980587;28;20208;-42
2023/12/24 11:10:52;;;;;;;49.80;14.07;;;;;;;8.25;100.00;99411.91;4981777;28;20536;-42
2023/12/24 11:13:31;;;;;;;40.60;14.20;;;;;;;8.29;100.00;99402.81;4980448;28;20898;-41
2023/12/24 11:16:00;;;;;;;43.85;15.90;;;;;;;8.28;100.00;99397.53;4979350;28;20202;-42
2023/12/24 11:18:49;;;;;;;34.30;12.68;;;;;;;8.28;100.00;99397.53;4984768;28;20651;-41
2023/12/24 11:21:21;;;;;;;34.28;10.75;;;;;;;8.39;100.00;99408.50;4981977;28;20277;-41
2023/12/24 11:24:11;;;;;;;38.85;14.90;;;;;;;8.32;100.00;99388.44;4980328;28;20703;-40
2023/12/24 11:26:36;;;;;;;48.10;24.88;;;;;;;8.39;100.00;99395.16;4983189;28;20197;-39